sensor_id;sensor_type;location;lat;lon;timestamp;temperature;humidity
63260;DHT22;49390;51.380;0.098;2023-08-31T00:02:03;15.10;99.90
63260;DHT22;49390;51.380;0.098;2023-08-31T00:04:32;15.00;99.90
63260;DHT22;49390;51.380;0.098;2023-08-31T00:07:00;15.10;99.90
63260;DHT22;49390;51.380;0.098;2023-08-31T00:09:28;15.10;99.90
63260;DHT22;49390;51.380;0.098;2023-08-31T00:11:57;15.10;99.90
63260;DHT22;49390;51.380;0.098;2023-08-31T00:14:27;15.10;99.90
63260;DHT22;49390;51.380;0.098;2023-08-31T00:16:55;15.10;99.90
63260;DHT22;49390;51.380;0.098;2023-08-31T00:19:25;15.10;99.90
63260;DHT22;49390;51.380;0.098;2023-08-31T00:21:53;15.10;99.90
63260;DHT22;49390;51.380;0.098;2023-08-31T00:24:21;15.10;99.90
63260;DHT22;49390;51.380;0.098;2023-08-31T00:26:50;15.10;99.90
63260;DHT22;49390;51.380;0.098;2023-08-31T00:29:19;15.10;99.90
63260;DHT22;49390;51.380;0.098;2023-08-31T00:31:47;15.10;99.90
63260;DHT22;49390;51.380;0.098;2023-08-31T00:34:17;15.00;99.90
63260;DHT22;49390;51.380;0.098;2023-08-31T00:36:49;15.00;99.90
63260;DHT22;49390;51.380;0.098;2023-08-31T00:39:18;14.90;99.90
63260;DHT22;49390;51.380;0.098;2023-08-31T00:41:48;14.90;99.90
63260;DHT22;49390;51.380;0.098;2023-08-31T00:44:18;14.80;99.90
63260;DHT22;49390;51.380;0.098;2023-08-31T00:46:48;14.70;99.90
63260;DHT22;49390;51.380;0.098;2023-08-31T00:49:17;14.70;99.90
63260;DHT22;49390;51.380;0.098;2023-08-31T00:51:45;14.60;99.90
63260;DHT22;49390;51.380;0.098;2023-08-31T00:54:18;14.60;99.90
63260;DHT22;49390;51.380;0.098;2023-08-31T00:56:52;14.60;99.90
63260;DHT22;49390;51.380;0.098;2023-08-31T00:59:20;14.60;99.90
63260;DHT22;49390;51.380;0.098;2023-08-31T01:07:48;14.60;99.90
63260;DHT22;49390;51.380;0.098;2023-08-31T01:13:03;14.40;99.90
63260;DHT22;49390;51.380;0.098;2023-08-31T01:15:44;14.30;99.90
63260;DHT22;49390;51.380;0.098;2023-08-31T01:18:16;14.40;99.90
63260;DHT22;49390;51.380;0.098;2023-08-31T01:26:22;14.40;99.90
63260;DHT22;49390;51.380;0.098;2023-08-31T01:28:51;14.40;99.90
63260;DHT22;49390;51.380;0.098;2023-08-31T01:31:20;14.30;99.90
63260;DHT22;49390;51.380;0.098;2023-08-31T01:33:49;14.30;99.90
63260;DHT22;49390;51.380;0.098;2023-08-31T01:36:23;14.30;99.90
63260;DHT22;49390;51.380;0.098;2023-08-31T01:41:31;14.30;99.90
63260;DHT22;49390;51.380;0.098;2023-08-31T01:44:03;14.30;99.90
63260;DHT22;49390;51.380;0.098;2023-08-31T01:46:32;14.30;99.90
63260;DHT22;49390;51.380;0.098;2023-08-31T01:49:04;14.30;99.90
63260;DHT22;49390;51.380;0.098;2023-08-31T01:51:33;14.30;99.90
63260;DHT22;49390;51.380;0.098;2023-08-31T01:54:02;14.30;99.90
63260;DHT22;49390;51.380;0.098;2023-08-31T01:56:31;14.30;99.90
63260;DHT22;49390;51.380;0.098;2023-08-31T01:58:59;14.30;99.90
63260;DHT22;49390;51.380;0.098;2023-08-31T02:01:28;14.30;99.90
63260;DHT22;49390;51.380;0.098;2023-08-31T02:03:57;14.30;99.90
63260;DHT22;49390;51.380;0.098;2023-08-31T02:06:28;14.30;99.90
63260;DHT22;49390;51.380;0.098;2023-08-31T02:08:56;14.30;99.90
63260;DHT22;49390;51.380;0.098;2023-08-31T02:11:24;14.30;99.90
63260;DHT22;49390;51.380;0.098;2023-08-31T02:13:55;14.30;99.90
63260;DHT22;49390;51.380;0.098;2023-08-31T02:16:23;14.20;99.90
63260;DHT22;49390;51.380;0.098;2023-08-31T02:18:51;14.10;99.90
63260;DHT22;49390;51.380;0.098;2023-08-31T02:21:19;14.10;99.90
63260;DHT22;49390;51.380;0.098;2023-08-31T02:23:47;14.00;99.90
63260;DHT22;49390;51.380;0.098;2023-08-31T02:26:16;14.00;99.90
63260;DHT22;49390;51.380;0.098;2023-08-31T02:28:46;14.00;99.90
63260;DHT22;49390;51.380;0.098;2023-08-31T02:31:16;14.00;99.90
63260;DHT22;49390;51.380;0.098;2023-08-31T02:33:46;14.10;99.90
63260;DHT22;49390;51.380;0.098;2023-08-31T02:36:14;14.00;99.90
63260;DHT22;49390;51.380;0.098;2023-08-31T02:38:45;14.00;99.90
63260;DHT22;49390;51.380;0.098;2023-08-31T02:41:14;13.90;99.90
63260;DHT22;49390;51.380;0.098;2023-08-31T02:43:42;13.90;99.90
63260;DHT22;49390;51.380;0.098;2023-08-31T02:46:10;13.90;99.90
63260;DHT22;49390;51.380;0.098;2023-08-31T02:48:38;13.90;99.90
63260;DHT22;49390;51.380;0.098;2023-08-31T02:51:08;13.90;99.90
63260;DHT22;49390;51.380;0.098;2023-08-31T02:53:36;13.90;99.90
63260;DHT22;49390;51.380;0.098;2023-08-31T02:56:07;14.00;99.90
63260;DHT22;49390;51.380;0.098;2023-08-31T02:58:35;13.90;99.90
63260;DHT22;49390;51.380;0.098;2023-08-31T03:01:12;14.00;99.90
63260;DHT22;49390;51.380;0.098;2023-08-31T03:03:43;13.90;99.90
63260;DHT22;49390;51.380;0.098;2023-08-31T03:06:13;13.90;99.90
63260;DHT22;49390;51.380;0.098;2023-08-31T03:08:42;14.00;99.90
63260;DHT22;49390;51.380;0.098;2023-08-31T03:11:11;13.90;99.90
63260;DHT22;49390;51.380;0.098;2023-08-31T03:13:42;13.90;99.90
63260;DHT22;49390;51.380;0.098;2023-08-31T03:16:10;13.90;99.90
63260;DHT22;49390;51.380;0.098;2023-08-31T03:18:38;13.90;99.90
63260;DHT22;49390;51.380;0.098;2023-08-31T03:21:07;13.90;99.90
63260;DHT22;49390;51.380;0.098;2023-08-31T03:23:36;13.90;99.90
63260;DHT22;49390;51.380;0.098;2023-08-31T03:26:08;13.90;99.90
63260;DHT22;49390;51.380;0.098;2023-08-31T03:28:36;13.90;99.90
63260;DHT22;49390;51.380;0.098;2023-08-31T03:31:08;13.90;99.90
63260;DHT22;49390;51.380;0.098;2023-08-31T03:33:36;13.90;99.90
63260;DHT22;49390;51.380;0.098;2023-08-31T03:36:05;13.90;99.90
63260;DHT22;49390;51.380;0.098;2023-08-31T03:38:34;13.90;99.90
63260;DHT22;49390;51.380;0.098;2023-08-31T03:41:07;13.90;99.90
63260;DHT22;49390;51.380;0.098;2023-08-31T03:43:35;13.90;99.90
63260;DHT22;49390;51.380;0.098;2023-08-31T03:46:03;13.90;99.90
63260;DHT22;49390;51.380;0.098;2023-08-31T03:48:31;13.90;99.90
63260;DHT22;49390;51.380;0.098;2023-08-31T03:50:59;13.90;99.90
63260;DHT22;49390;51.380;0.098;2023-08-31T03:53:27;13.90;99.90
63260;DHT22;49390;51.380;0.098;2023-08-31T03:55:59;13.90;99.90
63260;DHT22;49390;51.380;0.098;2023-08-31T03:58:27;13.90;99.90
63260;DHT22;49390;51.380;0.098;2023-08-31T04:00:55;13.90;99.90
63260;DHT22;49390;51.380;0.098;2023-08-31T04:03:23;13.90;99.90
63260;DHT22;49390;51.380;0.098;2023-08-31T04:05:55;13.80;99.90
63260;DHT22;49390;51.380;0.098;2023-08-31T04:08:23;13.80;99.90
63260;DHT22;49390;51.380;0.098;2023-08-31T04:10:51;13.80;99.90
63260;DHT22;49390;51.380;0.098;2023-08-31T04:13:21;13.80;99.90
63260;DHT22;49390;51.380;0.098;2023-08-31T04:15:49;13.80;99.90
63260;DHT22;49390;51.380;0.098;2023-08-31T04:18:17;13.80;99.90
63260;DHT22;49390;51.380;0.098;2023-08-31T04:20:50;13.80;99.90
63260;DHT22;49390;51.380;0.098;2023-08-31T04:23:23;13.80;99.90
63260;DHT22;49390;51.380;0.098;2023-08-31T04:25:53;13.80;99.90
63260;DHT22;49390;51.380;0.098;2023-08-31T04:28:21;13.80;99.90
63260;DHT22;49390;51.380;0.098;2023-08-31T04:30:49;13.80;99.90
63260;DHT22;49390;51.380;0.098;2023-08-31T04:33:18;13.80;99.90
63260;DHT22;49390;51.380;0.098;2023-08-31T04:35:46;13.80;99.90
63260;DHT22;49390;51.380;0.098;2023-08-31T04:38:14;13.80;99.90
63260;DHT22;49390;51.380;0.098;2023-08-31T04:40:42;13.70;99.90
63260;DHT22;49390;51.380;0.098;2023-08-31T04:43:11;13.80;99.90
63260;DHT22;49390;51.380;0.098;2023-08-31T04:45:40;13.70;99.90
63260;DHT22;49390;51.380;0.098;2023-08-31T04:48:08;13.70;99.90
63260;DHT22;49390;51.380;0.098;2023-08-31T04:50:36;13.70;99.90
63260;DHT22;49390;51.380;0.098;2023-08-31T04:53:04;13.80;99.90
63260;DHT22;49390;51.380;0.098;2023-08-31T04:55:32;13.70;99.90
63260;DHT22;49390;51.380;0.098;2023-08-31T04:58:00;13.70;99.90
63260;DHT22;49390;51.380;0.098;2023-08-31T05:00:28;13.70;99.90
63260;DHT22;49390;51.380;0.098;2023-08-31T05:02:57;13.60;99.90
63260;DHT22;49390;51.380;0.098;2023-08-31T05:05:26;13.60;99.90
63260;DHT22;49390;51.380;0.098;2023-08-31T05:07:54;13.60;99.90
63260;DHT22;49390;51.380;0.098;2023-08-31T05:10:22;13.60;99.90
63260;DHT22;49390;51.380;0.098;2023-08-31T05:12:50;13.70;99.90
63260;DHT22;49390;51.380;0.098;2023-08-31T05:15:18;13.70;99.90
63260;DHT22;49390;51.380;0.098;2023-08-31T05:17:46;13.70;99.90
63260;DHT22;49390;51.380;0.098;2023-08-31T05:20:16;13.70;99.90
63260;DHT22;49390;51.380;0.098;2023-08-31T05:22:45;13.70;99.90
63260;DHT22;49390;51.380;0.098;2023-08-31T05:25:14;13.70;99.90
63260;DHT22;49390;51.380;0.098;2023-08-31T05:27:42;13.70;99.90
63260;DHT22;49390;51.380;0.098;2023-08-31T05:30:10;13.70;99.90
63260;DHT22;49390;51.380;0.098;2023-08-31T05:32:39;13.70;99.90
63260;DHT22;49390;51.380;0.098;2023-08-31T05:35:08;13.70;99.90
63260;DHT22;49390;51.380;0.098;2023-08-31T05:37:36;13.70;99.90
63260;DHT22;49390;51.380;0.098;2023-08-31T05:40:04;13.70;99.90
63260;DHT22;49390;51.380;0.098;2023-08-31T05:42:38;13.80;99.90
63260;DHT22;49390;51.380;0.098;2023-08-31T05:45:06;13.80;99.90
63260;DHT22;49390;51.380;0.098;2023-08-31T05:47:34;13.80;99.90
63260;DHT22;49390;51.380;0.098;2023-08-31T05:50:03;13.80;99.90
63260;DHT22;49390;51.380;0.098;2023-08-31T05:52:31;13.90;99.90
63260;DHT22;49390;51.380;0.098;2023-08-31T05:54:59;13.90;99.90
63260;DHT22;49390;51.380;0.098;2023-08-31T05:57:27;13.90;99.90
63260;DHT22;49390;51.380;0.098;2023-08-31T05:59:56;13.90;99.90
63260;DHT22;49390;51.380;0.098;2023-08-31T06:02:25;13.90;99.90
63260;DHT22;49390;51.380;0.098;2023-08-31T06:04:53;13.90;99.90
63260;DHT22;49390;51.380;0.098;2023-08-31T06:07:21;13.90;99.90
63260;DHT22;49390;51.380;0.098;2023-08-31T06:09:49;14.00;99.90
63260;DHT22;49390;51.380;0.098;2023-08-31T06:12:17;14.00;99.90
63260;DHT22;49390;51.380;0.098;2023-08-31T06:14:45;14.00;99.90
63260;DHT22;49390;51.380;0.098;2023-08-31T06:17:13;14.10;99.90
63260;DHT22;49390;51.380;0.098;2023-08-31T06:19:41;14.10;99.90
63260;DHT22;49390;51.380;0.098;2023-08-31T06:22:10;14.20;99.90
63260;DHT22;49390;51.380;0.098;2023-08-31T06:24:38;14.20;99.90
63260;DHT22;49390;51.380;0.098;2023-08-31T06:27:06;14.20;99.90
63260;DHT22;49390;51.380;0.098;2023-08-31T06:29:34;14.30;99.90
63260;DHT22;49390;51.380;0.098;2023-08-31T06:32:02;14.30;99.90
63260;DHT22;49390;51.380;0.098;2023-08-31T06:34:32;14.30;99.90
63260;DHT22;49390;51.380;0.098;2023-08-31T06:37:03;14.30;99.90
63260;DHT22;49390;51.380;0.098;2023-08-31T06:39:32;14.40;99.90
63260;DHT22;49390;51.380;0.098;2023-08-31T06:42:02;14.40;99.90
63260;DHT22;49390;51.380;0.098;2023-08-31T06:44:31;14.50;99.90
63260;DHT22;49390;51.380;0.098;2023-08-31T06:46:59;14.50;99.90
63260;DHT22;49390;51.380;0.098;2023-08-31T06:49:27;14.60;99.90
63260;DHT22;49390;51.380;0.098;2023-08-31T06:51:55;14.60;99.90
63260;DHT22;49390;51.380;0.098;2023-08-31T06:54:23;14.70;99.90
63260;DHT22;49390;51.380;0.098;2023-08-31T06:56:51;14.70;99.90
63260;DHT22;49390;51.380;0.098;2023-08-31T06:59:21;14.70;99.90
63260;DHT22;49390;51.380;0.098;2023-08-31T07:01:49;14.70;99.90
63260;DHT22;49390;51.380;0.098;2023-08-31T07:04:18;14.70;99.90
63260;DHT22;49390;51.380;0.098;2023-08-31T07:06:46;14.80;99.90
63260;DHT22;49390;51.380;0.098;2023-08-31T07:09:14;14.90;99.90
63260;DHT22;49390;51.380;0.098;2023-08-31T07:11:42;14.90;99.90
63260;DHT22;49390;51.380;0.098;2023-08-31T07:14:10;15.00;99.90
63260;DHT22;49390;51.380;0.098;2023-08-31T07:16:38;15.00;99.90
63260;DHT22;49390;51.380;0.098;2023-08-31T07:19:06;15.00;99.90
63260;DHT22;49390;51.380;0.098;2023-08-31T07:21:33;15.00;99.90
63260;DHT22;49390;51.380;0.098;2023-08-31T07:24:02;15.10;99.90
63260;DHT22;49390;51.380;0.098;2023-08-31T07:26:30;15.10;99.90
63260;DHT22;49390;51.380;0.098;2023-08-31T07:28:58;15.20;99.90
63260;DHT22;49390;51.380;0.098;2023-08-31T07:31:29;15.20;99.90
63260;DHT22;49390;51.380;0.098;2023-08-31T07:33:58;15.30;99.90
63260;DHT22;49390;51.380;0.098;2023-08-31T07:36:26;15.40;99.90
63260;DHT22;49390;51.380;0.098;2023-08-31T07:38:54;15.50;99.90
63260;DHT22;49390;51.380;0.098;2023-08-31T07:41:22;15.50;99.90
63260;DHT22;49390;51.380;0.098;2023-08-31T07:43:50;15.70;99.90
63260;DHT22;49390;51.380;0.098;2023-08-31T07:46:31;15.80;99.90
63260;DHT22;49390;51.380;0.098;2023-08-31T07:48:59;15.90;99.90
63260;DHT22;49390;51.380;0.098;2023-08-31T07:51:27;16.10;99.90
63260;DHT22;49390;51.380;0.098;2023-08-31T07:53:56;16.20;99.90
63260;DHT22;49390;51.380;0.098;2023-08-31T07:56:24;16.40;99.90
63260;DHT22;49390;51.380;0.098;2023-08-31T07:58:52;16.50;99.90
63260;DHT22;49390;51.380;0.098;2023-08-31T08:01:20;16.70;99.90
63260;DHT22;49390;51.380;0.098;2023-08-31T08:03:48;16.80;99.90
63260;DHT22;49390;51.380;0.098;2023-08-31T08:06:17;16.80;99.90
63260;DHT22;49390;51.380;0.098;2023-08-31T08:08:47;16.90;99.90
63260;DHT22;49390;51.380;0.098;2023-08-31T08:11:15;16.90;99.90
63260;DHT22;49390;51.380;0.098;2023-08-31T08:13:44;16.90;99.90
63260;DHT22;49390;51.380;0.098;2023-08-31T08:16:14;17.00;99.90
63260;DHT22;49390;51.380;0.098;2023-08-31T08:18:42;16.90;99.90
63260;DHT22;49390;51.380;0.098;2023-08-31T08:21:10;17.00;99.90
63260;DHT22;49390;51.380;0.098;2023-08-31T08:23:38;17.00;99.90
63260;DHT22;49390;51.380;0.098;2023-08-31T08:26:06;17.10;99.90
63260;DHT22;49390;51.380;0.098;2023-08-31T08:28:35;17.10;99.90
63260;DHT22;49390;51.380;0.098;2023-08-31T08:31:03;17.20;99.90
63260;DHT22;49390;51.380;0.098;2023-08-31T08:33:31;17.30;99.90
63260;DHT22;49390;51.380;0.098;2023-08-31T08:36:00;17.30;99.90
63260;DHT22;49390;51.380;0.098;2023-08-31T08:38:28;17.40;99.90
63260;DHT22;49390;51.380;0.098;2023-08-31T08:40:56;17.50;99.90
63260;DHT22;49390;51.380;0.098;2023-08-31T08:43:26;17.50;99.90
63260;DHT22;49390;51.380;0.098;2023-08-31T08:46:04;17.60;99.90
63260;DHT22;49390;51.380;0.098;2023-08-31T08:48:34;17.70;99.90
63260;DHT22;49390;51.380;0.098;2023-08-31T08:51:05;17.70;99.90
63260;DHT22;49390;51.380;0.098;2023-08-31T08:53:34;17.80;99.90
63260;DHT22;49390;51.380;0.098;2023-08-31T08:56:02;17.80;99.90
63260;DHT22;49390;51.380;0.098;2023-08-31T08:58:30;17.90;99.90
63260;DHT22;49390;51.380;0.098;2023-08-31T09:00:58;17.90;99.90
63260;DHT22;49390;51.380;0.098;2023-08-31T09:03:26;18.00;99.90
63260;DHT22;49390;51.380;0.098;2023-08-31T09:05:55;18.00;99.90
63260;DHT22;49390;51.380;0.098;2023-08-31T09:08:27;18.00;99.90
63260;DHT22;49390;51.380;0.098;2023-08-31T09:10:56;18.00;99.90
63260;DHT22;49390;51.380;0.098;2023-08-31T09:13:29;17.90;99.60
63260;DHT22;49390;51.380;0.098;2023-08-31T09:15:57;17.90;99.20
63260;DHT22;49390;51.380;0.098;2023-08-31T09:18:31;17.90;98.50
63260;DHT22;49390;51.380;0.098;2023-08-31T09:21:01;17.90;97.80
63260;DHT22;49390;51.380;0.098;2023-08-31T09:23:29;17.80;97.30
63260;DHT22;49390;51.380;0.098;2023-08-31T09:25:57;17.90;97.00
63260;DHT22;49390;51.380;0.098;2023-08-31T09:28:27;17.80;96.90
63260;DHT22;49390;51.380;0.098;2023-08-31T09:31:06;17.80;97.40
63260;DHT22;49390;51.380;0.098;2023-08-31T09:33:38;17.80;98.30
63260;DHT22;49390;51.380;0.098;2023-08-31T09:36:07;17.70;99.40
63260;DHT22;49390;51.380;0.098;2023-08-31T09:38:43;17.70;99.90
63260;DHT22;49390;51.380;0.098;2023-08-31T09:41:12;17.70;99.90
63260;DHT22;49390;51.380;0.098;2023-08-31T09:43:41;17.70;99.90
63260;DHT22;49390;51.380;0.098;2023-08-31T09:46:12;17.70;99.90
63260;DHT22;49390;51.380;0.098;2023-08-31T09:48:42;17.70;99.90
63260;DHT22;49390;51.380;0.098;2023-08-31T09:51:11;17.70;99.90
63260;DHT22;49390;51.380;0.098;2023-08-31T09:53:48;17.70;99.90
63260;DHT22;49390;51.380;0.098;2023-08-31T09:56:20;17.60;99.90
63260;DHT22;49390;51.380;0.098;2023-08-31T09:58:50;17.60;99.90
63260;DHT22;49390;51.380;0.098;2023-08-31T10:01:18;17.60;99.90
63260;DHT22;49390;51.380;0.098;2023-08-31T10:03:57;17.50;99.90
63260;DHT22;49390;51.380;0.098;2023-08-31T10:06:27;17.50;99.90
63260;DHT22;49390;51.380;0.098;2023-08-31T10:08:55;17.40;99.90
63260;DHT22;49390;51.380;0.098;2023-08-31T10:11:27;17.40;99.90
63260;DHT22;49390;51.380;0.098;2023-08-31T10:13:57;17.40;99.90
63260;DHT22;49390;51.380;0.098;2023-08-31T10:16:26;17.40;99.90
63260;DHT22;49390;51.380;0.098;2023-08-31T10:18:59;17.40;99.90
63260;DHT22;49390;51.380;0.098;2023-08-31T10:21:27;17.50;99.90
63260;DHT22;49390;51.380;0.098;2023-08-31T10:23:56;17.50;99.90
63260;DHT22;49390;51.380;0.098;2023-08-31T10:26:31;17.50;99.90
63260;DHT22;49390;51.380;0.098;2023-08-31T10:28:59;17.40;99.90
63260;DHT22;49390;51.380;0.098;2023-08-31T10:31:32;17.50;99.90
63260;DHT22;49390;51.380;0.098;2023-08-31T10:34:05;17.50;99.90
63260;DHT22;49390;51.380;0.098;2023-08-31T10:36:47;17.60;99.90
63260;DHT22;49390;51.380;0.098;2023-08-31T10:39:38;17.70;99.90
63260;DHT22;49390;51.380;0.098;2023-08-31T10:42:07;17.90;99.90
63260;DHT22;49390;51.380;0.098;2023-08-31T10:44:35;18.10;99.90
63260;DHT22;49390;51.380;0.098;2023-08-31T10:47:03;18.20;99.90
63260;DHT22;49390;51.380;0.098;2023-08-31T10:49:32;18.30;99.90
63260;DHT22;49390;51.380;0.098;2023-08-31T10:52:21;18.40;99.90
63260;DHT22;49390;51.380;0.098;2023-08-31T10:55:08;18.50;99.90
63260;DHT22;49390;51.380;0.098;2023-08-31T10:57:39;18.70;99.90
63260;DHT22;49390;51.380;0.098;2023-08-31T11:00:09;18.80;99.90
63260;DHT22;49390;51.380;0.098;2023-08-31T11:02:42;18.90;99.90
63260;DHT22;49390;51.380;0.098;2023-08-31T11:05:13;19.00;99.90
63260;DHT22;49390;51.380;0.098;2023-08-31T11:07:44;19.10;99.90
63260;DHT22;49390;51.380;0.098;2023-08-31T11:10:20;19.20;99.90
63260;DHT22;49390;51.380;0.098;2023-08-31T11:12:53;19.20;99.90
63260;DHT22;49390;51.380;0.098;2023-08-31T11:15:27;19.10;99.90
63260;DHT22;49390;51.380;0.098;2023-08-31T11:17:58;19.10;99.90
63260;DHT22;49390;51.380;0.098;2023-08-31T11:20:29;19.10;99.90
63260;DHT22;49390;51.380;0.098;2023-08-31T11:22:58;19.00;99.90
63260;DHT22;49390;51.380;0.098;2023-08-31T11:25:31;19.00;99.90
63260;DHT22;49390;51.380;0.098;2023-08-31T11:28:00;19.00;99.90
63260;DHT22;49390;51.380;0.098;2023-08-31T11:30:31;18.90;99.90
63260;DHT22;49390;51.380;0.098;2023-08-31T11:33:05;18.90;99.90
63260;DHT22;49390;51.380;0.098;2023-08-31T11:35:36;18.90;99.90
63260;DHT22;49390;51.380;0.098;2023-08-31T11:38:04;18.80;99.90
63260;DHT22;49390;51.380;0.098;2023-08-31T11:40:33;18.70;99.90
63260;DHT22;49390;51.380;0.098;2023-08-31T11:43:04;18.70;99.90
63260;DHT22;49390;51.380;0.098;2023-08-31T11:45:36;18.80;99.90
63260;DHT22;49390;51.380;0.098;2023-08-31T11:48:06;18.80;99.90
63260;DHT22;49390;51.380;0.098;2023-08-31T11:50:35;18.80;99.90
63260;DHT22;49390;51.380;0.098;2023-08-31T11:53:04;18.80;99.90
63260;DHT22;49390;51.380;0.098;2023-08-31T11:55:33;18.90;99.90
63260;DHT22;49390;51.380;0.098;2023-08-31T11:58:01;18.90;99.90
63260;DHT22;49390;51.380;0.098;2023-08-31T12:00:29;18.90;99.90
63260;DHT22;49390;51.380;0.098;2023-08-31T12:03:00;19.00;99.90
63260;DHT22;49390;51.380;0.098;2023-08-31T12:05:45;19.10;99.90
63260;DHT22;49390;51.380;0.098;2023-08-31T12:08:15;19.10;99.90
63260;DHT22;49390;51.380;0.098;2023-08-31T12:10:44;19.10;99.90
63260;DHT22;49390;51.380;0.098;2023-08-31T12:13:14;19.10;99.90
63260;DHT22;49390;51.380;0.098;2023-08-31T12:15:42;19.10;99.90
63260;DHT22;49390;51.380;0.098;2023-08-31T12:18:12;19.10;99.90
63260;DHT22;49390;51.380;0.098;2023-08-31T12:20:47;19.10;99.90
63260;DHT22;49390;51.380;0.098;2023-08-31T12:23:15;19.10;99.90
63260;DHT22;49390;51.380;0.098;2023-08-31T12:25:48;19.00;99.90
63260;DHT22;49390;51.380;0.098;2023-08-31T12:28:18;19.00;99.90
63260;DHT22;49390;51.380;0.098;2023-08-31T12:30:51;18.90;99.90
63260;DHT22;49390;51.380;0.098;2023-08-31T12:33:20;18.90;99.90
63260;DHT22;49390;51.380;0.098;2023-08-31T12:35:49;19.00;99.90
63260;DHT22;49390;51.380;0.098;2023-08-31T12:38:18;19.00;99.90
63260;DHT22;49390;51.380;0.098;2023-08-31T12:40:48;19.00;99.90
63260;DHT22;49390;51.380;0.098;2023-08-31T12:43:15;18.90;99.90
63260;DHT22;49390;51.380;0.098;2023-08-31T12:45:45;18.90;99.90
63260;DHT22;49390;51.380;0.098;2023-08-31T12:48:13;18.90;99.90
63260;DHT22;49390;51.380;0.098;2023-08-31T12:50:41;18.80;99.90
63260;DHT22;49390;51.380;0.098;2023-08-31T12:53:12;18.80;99.90
63260;DHT22;49390;51.380;0.098;2023-08-31T12:55:41;18.80;99.90
63260;DHT22;49390;51.380;0.098;2023-08-31T12:58:11;18.80;99.90
63260;DHT22;49390;51.380;0.098;2023-08-31T13:00:39;18.90;99.90
63260;DHT22;49390;51.380;0.098;2023-08-31T13:03:07;18.90;99.90
63260;DHT22;49390;51.380;0.098;2023-08-31T13:05:40;18.90;99.90
63260;DHT22;49390;51.380;0.098;2023-08-31T13:08:08;18.90;99.90
63260;DHT22;49390;51.380;0.098;2023-08-31T13:10:40;18.80;99.90
63260;DHT22;49390;51.380;0.098;2023-08-31T13:13:08;18.80;99.90
63260;DHT22;49390;51.380;0.098;2023-08-31T13:15:37;18.70;99.90
63260;DHT22;49390;51.380;0.098;2023-08-31T13:18:05;18.70;99.90
63260;DHT22;49390;51.380;0.098;2023-08-31T13:20:33;18.70;99.90
63260;DHT22;49390;51.380;0.098;2023-08-31T13:23:03;18.60;99.90
63260;DHT22;49390;51.380;0.098;2023-08-31T13:25:34;18.60;99.90
63260;DHT22;49390;51.380;0.098;2023-08-31T13:28:02;18.50;99.90
63260;DHT22;49390;51.380;0.098;2023-08-31T13:30:32;18.50;99.90
63260;DHT22;49390;51.380;0.098;2023-08-31T13:33:00;18.50;99.90
63260;DHT22;49390;51.380;0.098;2023-08-31T13:35:28;18.50;99.90
63260;DHT22;49390;51.380;0.098;2023-08-31T13:38:13;18.60;99.90
63260;DHT22;49390;51.380;0.098;2023-08-31T13:40:43;18.60;99.90
63260;DHT22;49390;51.380;0.098;2023-08-31T13:43:11;18.50;99.90
63260;DHT22;49390;51.380;0.098;2023-08-31T13:45:39;18.40;99.90
63260;DHT22;49390;51.380;0.098;2023-08-31T13:48:07;18.30;99.90
63260;DHT22;49390;51.380;0.098;2023-08-31T13:50:36;18.30;99.90
63260;DHT22;49390;51.380;0.098;2023-08-31T13:53:04;18.20;99.90
63260;DHT22;49390;51.380;0.098;2023-08-31T13:55:33;18.20;99.90
63260;DHT22;49390;51.380;0.098;2023-08-31T13:58:06;18.10;99.90
63260;DHT22;49390;51.380;0.098;2023-08-31T14:00:35;18.10;99.90
63260;DHT22;49390;51.380;0.098;2023-08-31T14:03:04;18.10;99.90
63260;DHT22;49390;51.380;0.098;2023-08-31T14:05:33;18.10;99.90
63260;DHT22;49390;51.380;0.098;2023-08-31T14:08:01;18.10;99.90
63260;DHT22;49390;51.380;0.098;2023-08-31T14:10:32;18.10;99.90
63260;DHT22;49390;51.380;0.098;2023-08-31T14:13:03;18.10;99.90
63260;DHT22;49390;51.380;0.098;2023-08-31T14:15:32;18.10;99.90
63260;DHT22;49390;51.380;0.098;2023-08-31T14:18:00;18.20;99.90
63260;DHT22;49390;51.380;0.098;2023-08-31T14:20:28;18.20;99.90
63260;DHT22;49390;51.380;0.098;2023-08-31T14:22:57;18.20;99.90
63260;DHT22;49390;51.380;0.098;2023-08-31T14:25:25;18.20;99.90
63260;DHT22;49390;51.380;0.098;2023-08-31T14:27:53;18.20;99.90
63260;DHT22;49390;51.380;0.098;2023-08-31T14:30:22;18.10;99.90
63260;DHT22;49390;51.380;0.098;2023-08-31T14:32:50;18.10;99.90
63260;DHT22;49390;51.380;0.098;2023-08-31T14:35:18;18.00;99.90
63260;DHT22;49390;51.380;0.098;2023-08-31T14:37:46;18.00;99.90
63260;DHT22;49390;51.380;0.098;2023-08-31T14:40:14;17.90;99.90
63260;DHT22;49390;51.380;0.098;2023-08-31T14:42:42;17.90;99.90
63260;DHT22;49390;51.380;0.098;2023-08-31T14:45:10;17.90;99.90
63260;DHT22;49390;51.380;0.098;2023-08-31T14:47:41;17.90;99.90
63260;DHT22;49390;51.380;0.098;2023-08-31T14:50:09;17.90;99.90
63260;DHT22;49390;51.380;0.098;2023-08-31T14:52:37;17.90;99.90
63260;DHT22;49390;51.380;0.098;2023-08-31T14:55:06;17.90;99.90
63260;DHT22;49390;51.380;0.098;2023-08-31T14:57:34;17.80;99.90
63260;DHT22;49390;51.380;0.098;2023-08-31T15:00:02;17.80;99.90
63260;DHT22;49390;51.380;0.098;2023-08-31T15:02:33;17.80;99.90
63260;DHT22;49390;51.380;0.098;2023-08-31T15:05:01;17.80;99.90
63260;DHT22;49390;51.380;0.098;2023-08-31T15:07:31;17.80;99.90
63260;DHT22;49390;51.380;0.098;2023-08-31T15:09:59;17.90;99.90
63260;DHT22;49390;51.380;0.098;2023-08-31T15:12:27;18.00;99.90
63260;DHT22;49390;51.380;0.098;2023-08-31T15:14:56;18.00;99.90
63260;DHT22;49390;51.380;0.098;2023-08-31T15:17:26;17.90;99.90
63260;DHT22;49390;51.380;0.098;2023-08-31T15:19:56;17.80;99.90
63260;DHT22;49390;51.380;0.098;2023-08-31T15:22:24;17.80;99.90
63260;DHT22;49390;51.380;0.098;2023-08-31T15:24:52;17.80;99.90
63260;DHT22;49390;51.380;0.098;2023-08-31T15:27:23;17.80;99.90
63260;DHT22;49390;51.380;0.098;2023-08-31T15:29:51;17.80;99.90
63260;DHT22;49390;51.380;0.098;2023-08-31T15:32:19;17.80;99.90
63260;DHT22;49390;51.380;0.098;2023-08-31T15:34:47;17.80;99.90
63260;DHT22;49390;51.380;0.098;2023-08-31T15:37:18;17.80;99.90
63260;DHT22;49390;51.380;0.098;2023-08-31T15:39:46;17.70;99.90
63260;DHT22;49390;51.380;0.098;2023-08-31T15:42:14;17.70;99.90
63260;DHT22;49390;51.380;0.098;2023-08-31T15:44:43;17.60;99.90
63260;DHT22;49390;51.380;0.098;2023-08-31T15:47:11;17.50;99.90
63260;DHT22;49390;51.380;0.098;2023-08-31T15:49:39;17.40;99.90
63260;DHT22;49390;51.380;0.098;2023-08-31T15:52:08;17.40;99.90
63260;DHT22;49390;51.380;0.098;2023-08-31T15:54:37;17.40;99.90
63260;DHT22;49390;51.380;0.098;2023-08-31T15:57:06;17.50;99.90
63260;DHT22;49390;51.380;0.098;2023-08-31T15:59:34;17.50;99.90
63260;DHT22;49390;51.380;0.098;2023-08-31T16:02:02;17.50;99.90